Time;durP1;ratioP1;P1;durP2;ratioP2;P2;SDS_P1;SDS_P2;PMS_P1;PMS_P2;Temp;Humidity;BMP_temperature;BMP_pressure;BME280_temperature;BME280_humidity;BME280_pressure;Samples;Min_cycle;Max_cycle;Signal;HPM_P1;HPM_P2
2022/11/04 00:01:14;;;;;;;14.30;4.10;;;;;;;9.32;100.00;99631.00;5175165;27;20098;-46
2022/11/04 00:03:41;;;;;;;7.55;4.55;;;;;;;9.33;100.00;99631.78;5174913;27;20054;-48
2022/11/04 00:06:08;;;;;;;13.95;4.68;;;;;;;9.32;100.00;99646.63;5174778;27;20552;-46
2022/11/04 00:08:34;;;;;;;9.68;4.57;;;;;;;9.39;100.00;99635.88;5174764;27;20161;-46
2022/11/04 00:13:46;;;;;;;8.50;3.97;;;;;;;9.24;100.00;99634.66;5174559;27;20133;-46
2022/11/04 00:18:59;;;;;;;8.77;4.32;;;;;;;9.30;100.00;99640.72;5174533;27;20416;-46
2022/11/04 00:29:54;;;;;;;12.57;4.45;;;;;;;9.40;100.00;99640.22;5164571;27;20129;-46
2022/11/04 00:35:07;;;;;;;14.70;4.97;;;;;;;9.37;100.00;99641.72;5173574;27;20106;-45
2022/11/04 00:37:36;;;;;;;12.63;5.30;;;;;;;9.31;100.00;99636.81;5174186;27;20050;-47
2022/11/04 00:40:02;;;;;;;9.88;5.25;;;;;;;9.37;100.00;99632.72;5174081;27;20054;-46
2022/11/04 00:42:29;;;;;;;11.43;6.25;;;;;;;9.49;100.00;99621.72;5173996;27;20050;-45
2022/11/04 00:44:55;;;;;;;12.90;5.75;;;;;;;9.55;100.00;99631.28;5173937;27;20568;-46
2022/11/04 00:47:21;;;;;;;8.60;5.15;;;;;;;9.51;100.00;99632.31;5173882;27;20050;-46
2022/11/04 00:49:47;;;;;;;16.25;6.60;;;;;;;9.41;100.00;99636.34;5174283;27;20426;-48
2022/11/04 00:52:14;;;;;;;10.50;5.28;;;;;;;9.52;100.00;99636.66;5173794;27;20098;-48
2022/11/04 00:54:41;;;;;;;10.48;6.15;;;;;;;9.36;100.00;99633.81;5174205;27;20075;-45
2022/11/04 00:57:08;;;;;;;12.70;5.43;;;;;;;9.32;100.00;99628.25;5173716;27;20053;-46
2022/11/04 00:59:35;;;;;;;11.45;5.60;;;;;;;9.24;100.00;99622.94;5174015;27;20461;-48
2022/11/04 01:02:01;;;;;;;13.32;5.72;;;;;;;9.21;100.00;99618.94;5173777;27;20068;-47
2022/11/04 01:04:27;;;;;;;9.65;5.22;;;;;;;9.17;100.00;99605.16;5173864;27;20046;-47
2022/11/04 01:06:54;;;;;;;10.05;5.32;;;;;;;9.18;100.00;99620.41;5173614;27;20049;-47
2022/11/04 01:09:20;;;;;;;12.75;6.15;;;;;;;9.22;100.00;99611.53;5173468;27;20050;-46
2022/11/04 01:11:47;;;;;;;13.82;5.75;;;;;;;9.17;100.00;99605.16;5173668;27;20054;-47
2022/11/04 01:14:14;;;;;;;9.48;5.65;;;;;;;8.97;100.00;99599.84;5173297;27;20095;-47
2022/11/04 01:16:40;;;;;;;18.85;5.97;;;;;;;8.88;100.00;99575.34;5173684;27;20049;-46
2022/11/04 01:19:07;;;;;;;14.57;6.38;;;;;;;8.87;100.00;99565.53;5173323;27;20050;-47
2022/11/04 01:21:33;;;;;;;18.27;6.20;;;;;;;9.12;100.00;99563.56;5173741;27;20114;-46
2022/11/04 01:24:00;;;;;;;17.42;6.97;;;;;;;8.91;100.00;99556.28;5173243;27;20049;-46
2022/11/04 01:26:28;;;;;;;12.10;5.80;;;;;;;8.94;100.00;99557.56;5173506;27;20094;-47
2022/11/04 01:28:56;;;;;;;15.18;6.68;;;;;;;9.14;100.00;99558.53;5173258;27;20056;-47
2022/11/04 01:31:24;;;;;;;11.18;6.63;;;;;;;9.10;100.00;99560.38;5173454;27;20046;-46
2022/11/04 01:33:52;;;;;;;12.80;6.45;;;;;;;9.21;100.00;99555.22;5173078;27;20585;-46
2022/11/04 01:36:19;;;;;;;13.30;7.20;;;;;;;9.02;100.00;99561.28;5173060;27;20497;-46
2022/11/04 01:38:46;;;;;;;12.05;5.70;;;;;;;9.18;100.00;99551.22;5173045;27;20536;-46
2022/11/04 01:41:18;;;;;;;12.77;6.55;;;;;;;9.25;100.00;99561.59;5173227;27;20455;-46
2022/11/04 01:43:48;;;;;;;16.00;6.90;;;;;;;9.10;100.00;99563.13;5173006;27;20057;-49
2022/11/04 01:46:26;;;;;;;15.45;7.07;;;;;;;9.22;100.00;99557.59;5171845;27;20501;-47
2022/11/04 01:48:55;;;;;;;17.63;7.75;;;;;;;9.04;100.00;99554.34;5173250;27;20050;-50
2022/11/04 01:51:22;;;;;;;14.45;8.20;;;;;;;8.87;100.00;99546.41;5172872;27;20081;-46
2022/11/04 01:53:51;;;;;;;17.75;8.25;;;;;;;8.74;100.00;99521.00;5173003;27;20046;-47
2022/11/04 01:56:19;;;;;;;15.48;7.35;;;;;;;8.66;100.00;99505.53;5172931;27;20050;-46
2022/11/04 01:58:51;;;;;;;15.80;7.72;;;;;;;8.72;100.00;99490.47;5172894;27;20081;-47
2022/11/04 02:01:17;;;;;;;17.02;7.47;;;;;;;8.95;100.00;99497.03;5173040;27;20061;-49
2022/11/04 02:03:50;;;;;;;15.77;7.85;;;;;;;9.01;100.00;99483.13;5172987;27;20064;-46
2022/11/04 02:06:18;;;;;;;12.73;8.05;;;;;;;8.94;100.00;99489.19;5172816;27;20084;-48
2022/11/04 02:08:45;;;;;;;15.18;8.27;;;;;;;8.72;100.00;99485.00;5172594;27;20082;-47
2022/11/04 02:12:48;;;;;;;14.80;7.80;;;;;;;8.66;100.00;99475.44;5172665;27;20085;-46
2022/11/04 02:13:59;;;;;;;15.30;8.88;;;;;;;8.79;100.00;99478.97;5172354;27;20102;-49
2022/11/04 02:16:37;;;;;;;16.23;9.18;;;;;;;8.81;100.00;99469.28;5172802;27;20070;-47
2022/11/04 02:19:20;;;;;;;16.55;9.02;;;;;;;8.76;100.00;99463.25;5172455;27;20050;-46
2022/11/04 02:22:18;;;;;;;14.02;8.25;;;;;;;8.98;100.00;99468.22;5172432;27;20141;-47
2022/11/04 02:25:07;;;;;;;19.92;9.02;;;;;;;8.84;100.00;99484.22;5172693;27;20489;-46
2022/11/04 02:27:47;;;;;;;18.08;9.63;;;;;;;8.74;100.00;99479.22;5172430;27;20185;-46
2022/11/04 02:30:16;;;;;;;20.35;9.43;;;;;;;8.83;100.00;99468.94;5172384;27;20050;-46
2022/11/04 02:33:13;;;;;;;18.50;9.00;;;;;;;8.95;100.00;99453.28;5172333;27;20050;-47
2022/11/04 02:35:47;;;;;;;26.63;9.35;;;;;;;8.94;100.00;99464.59;5172223;27;20050;-47
2022/11/04 02:38:27;;;;;;;17.05;9.15;;;;;;;8.85;100.00;99472.91;5172458;27;20096;-47
2022/11/04 02:41:00;;;;;;;20.13;9.20;;;;;;;8.70;100.00;99444.38;5172201;27;20082;-48
2022/11/04 02:43:35;;;;;;;22.83;9.52;;;;;;;8.84;100.00;99441.25;5172431;27;20046;-49
2022/11/04 02:46:06;;;;;;;19.52;9.02;;;;;;;8.66;100.00;99450.84;5172442;27;20104;-48
2022/11/04 02:48:38;;;;;;;26.63;9.18;;;;;;;8.54;100.00;99439.97;5172186;27;20154;-47
2022/11/04 02:51:10;;;;;;;16.95;8.90;;;;;;;8.78;100.00;99428.97;5172213;27;20125;-46
2022/11/04 02:53:42;;;;;;;13.88;8.63;;;;;;;8.71;100.00;99420.56;5171977;27;20079;-48
2022/11/04 02:56:12;;;;;;;24.63;9.48;;;;;;;8.62;100.00;99422.63;5171895;27;20077;-46
2022/11/04 02:58:43;;;;;;;20.50;9.00;;;;;;;8.62;100.00;99415.22;5174522;27;20046;-47
2022/11/04 03:01:16;;;;;;;24.20;9.85;;;;;;;8.63;100.00;99405.91;5175758;27;20057;-48
2022/11/04 03:03:48;;;;;;;18.55;9.57;;;;;;;8.68;100.00;99399.38;5175651;27;20072;-47
2022/11/04 03:06:19;;;;;;;20.60;8.88;;;;;;;8.65;100.00;99405.53;5175488;27;20049;-46
2022/11/04 03:08:48;;;;;;;20.52;8.73;;;;;;;8.83;100.00;99412.34;5175836;27;20102;-45
2022/11/04 03:11:17;;;;;;;20.23;8.30;;;;;;;8.78;100.00;99419.97;5175454;27;20090;-46
2022/11/04 03:13:49;;;;;;;17.08;8.38;;;;;;;8.80;100.00;99429.44;5175755;27;20097;-45
2022/11/04 03:16:20;;;;;;;20.27;9.38;;;;;;;8.59;100.00;99426.84;5175337;27;20090;-46
2022/11/04 03:18:56;;;;;;;20.20;8.88;;;;;;;8.83;100.00;99412.34;5175606;27;20095;-46
2022/11/04 03:21:24;;;;;;;17.33;7.63;;;;;;;8.75;100.00;99426.94;5175339;27;20049;-46
2022/11/04 03:23:51;;;;;;;20.45;7.80;;;;;;;8.85;100.00;99420.19;5175499;27;20057;-48
2022/11/04 03:26:23;;;;;;;15.02;7.47;;;;;;;8.87;100.00;99429.63;5175228;27;20046;-46
2022/11/04 03:28:59;;;;;;;17.83;7.30;;;;;;;8.96;100.00;99429.47;5175202;27;20082;-50
2022/11/04 03:31:35;;;;;;;12.52;7.22;;;;;;;8.82;100.00;99443.53;5175193;27;20054;-47
2022/11/04 03:34:01;;;;;;;11.98;6.57;;;;;;;8.66;100.00;99443.47;5175433;27;20924;-46
2022/11/04 03:36:29;;;;;;;12.77;6.70;;;;;;;8.97;100.00;99435.75;5175719;27;20042;-48
2022/11/04 03:38:55;;;;;;;11.73;6.30;;;;;;;8.85;100.00;99451.03;5175548;27;20874;-49
2022/11/04 03:41:32;;;;;;;13.95;6.47;;;;;;;8.89;100.00;99459.34;5175633;27;20103;-47
2022/11/04 03:43:58;;;;;;;10.75;5.72;;;;;;;8.70;100.00;99458.03;5175505;27;20068;-48
2022/11/04 03:46:26;;;;;;;16.27;6.68;;;;;;;8.90;100.00;99455.50;5175279;27;20549;-48
2022/11/04 03:48:53;;;;;;;14.10;6.32;;;;;;;8.67;100.00;99455.19;5174852;27;20046;-49
2022/11/04 03:51:19;;;;;;;12.02;5.88;;;;;;;8.67;100.00;99431.41;5175031;27;20046;-46
2022/11/04 03:53:45;;;;;;;9.18;5.63;;;;;;;8.62;100.00;99439.03;5174831;27;20046;-47
2022/11/04 03:56:33;;;;;;;10.20;5.78;;;;;;;8.64;100.00;99421.16;5174627;27;20101;-48
2022/11/04 03:59:25;;;;;;;8.52;4.30;;;;;;;8.58;100.00;99429.94;5174721;27;20133;-46
2022/11/04 04:01:56;;;;;;;7.68;5.00;;;;;;;8.44;100.00;99422.09;5174757;27;20049;-47
2022/11/04 04:04:27;;;;;;;13.82;5.43;;;;;;;8.31;100.00;99415.03;5174593;27;20054;-48
2022/11/04 04:06:58;;;;;;;9.15;5.40;;;;;;;8.24;100.00;99397.28;5174502;27;20046;-49
2022/11/04 04:09:30;;;;;;;7.47;4.72;;;;;;;8.51;100.00;99373.13;5173499;27;20061;-47
2022/11/04 04:12:05;;;;;;;9.95;4.80;;;;;;;8.65;100.00;99380.94;5174607;27;20046;-48
2022/11/04 04:14:38;;;;;;;9.50;5.45;;;;;;;8.75;100.00;99409.72;5174541;27;20054;-46
2022/11/04 04:17:08;;;;;;;7.90;5.10;;;;;;;8.72;100.00;99417.47;5174929;27;20595;-47
2022/11/04 04:19:36;;;;;;;9.80;5.43;;;;;;;8.80;100.00;99431.38;5174492;27;20046;-47
2022/11/04 04:22:06;;;;;;;7.57;4.63;;;;;;;8.73;100.00;99456.56;5174430;27;20548;-47
2022/11/04 04:27:31;;;;;;;6.40;4.25;;;;;;;8.74;100.00;99436.28;5174383;27;20133;-47
2022/11/04 04:29:59;;;;;;;10.05;5.13;;;;;;;8.81;100.00;99455.63;5174521;27;20057;-46
2022/11/04 04:32:29;;;;;;;8.27;5.00;;;;;;;8.84;100.00;99465.06;5174122;27;20469;-46
2022/11/04 04:35:40;;;;;;;8.85;4.60;;;;;;;8.84;100.00;99471.34;5174620;27;20093;-46
2022/11/04 04:37:53;;;;;;;9.23;4.95;;;;;;;8.79;100.00;99484.44;5173897;27;20046;-46
2022/11/04 04:46:01;;;;;;;9.35;5.65;;;;;;;8.70;100.00;99476.38;5173955;27;20056;-49
2022/11/04 04:48:28;;;;;;;9.05;5.25;;;;;;;8.74;100.00;99465.56;5173919;27;20050;-47
2022/11/04 04:51:00;;;;;;;13.13;5.75;;;;;;;8.74;100.00;99469.06;5173755;27;20050;-46
2022/11/04 04:53:27;;;;;;;13.55;6.03;;;;;;;8.66;100.00;99456.31;5173751;27;20089;-46
2022/11/04 04:55:53;;;;;;;9.55;6.13;;;;;;;8.59;100.00;99464.31;5173687;27;20505;-46
2022/11/04 04:58:19;;;;;;;10.07;6.03;;;;;;;8.56;100.00;99459.53;5173674;27;20141;-46
2022/11/04 05:00:46;;;;;;;17.55;6.28;;;;;;;8.76;100.00;99455.84;5173455;27;20058;-46
2022/11/04 05:03:12;;;;;;;10.00;5.55;;;;;;;8.89;100.00;99454.66;5173954;27;20046;-48
2022/11/04 05:05:39;;;;;;;9.48;5.65;;;;;;;8.87;100.00;99480.78;5173649;27;20165;-47
2022/11/04 05:08:06;;;;;;;9.75;5.18;;;;;;;8.65;100.00;99482.06;5173399;27;20046;-49
2022/11/04 05:10:33;;;;;;;9.10;4.95;;;;;;;8.85;100.00;99478.38;5173409;27;20404;-47
2022/11/04 05:15:43;;;;;;;8.10;5.32;;;;;;;8.92;100.00;99488.72;5173514;27;20538;-46
2022/11/04 05:18:10;;;;;;;9.88;5.43;;;;;;;8.76;100.00;99507.00;5173255;27;20050;-46
2022/11/04 05:20:39;;;;;;;7.05;4.78;;;;;;;8.86;100.00;99507.34;5172993;27;20057;-47
2022/11/04 05:23:06;;;;;;;9.40;4.50;;;;;;;8.90;100.00;99501.97;5173217;27;20230;-46
2022/11/04 05:25:32;;;;;;;9.23;4.90;;;;;;;8.84;100.00;99509.59;5173058;27;20151;-45
2022/11/04 05:28:01;;;;;;;7.35;4.25;;;;;;;8.85;100.00;99516.66;5173096;27;20046;-46
2022/11/04 05:30:27;;;;;;;7.55;4.15;;;;;;;8.84;100.00;99517.81;5173032;27;20050;-46
2022/11/04 05:32:53;;;;;;;7.90;4.45;;;;;;;8.97;100.00;99523.25;5173087;27;20094;-46
2022/11/04 05:35:20;;;;;;;9.48;4.38;;;;;;;8.85;100.00;99533.06;5173180;27;20114;-47
2022/11/04 05:37:46;;;;;;;9.02;4.55;;;;;;;8.85;100.00;99532.28;5172927;27;20048;-46
2022/11/04 05:40:13;;;;;;;81.15;37.38;;;;;;;8.94;100.00;99536.47;5172947;27;20071;-46
2022/11/04 05:42:39;;;;;;;156.60;78.50;;;;;;;8.84;100.00;99542.41;5173002;27;20046;-47
2022/11/04 05:45:07;;;;;;;7.75;4.50;;;;;;;8.87;100.00;99533.53;5172870;27;20532;-46
2022/11/04 05:47:33;;;;;;;6.68;4.53;;;;;;;8.81;100.00;99531.38;5172863;27;20046;-46
2022/11/04 05:49:59;;;;;;;7.88;4.63;;;;;;;8.92;100.00;99535.22;5172799;27;20460;-47
2022/11/04 05:52:25;;;;;;;7.55;4.78;;;;;;;8.82;100.00;99549.34;5172689;27;20053;-47
2022/11/04 05:54:52;;;;;;;13.88;6.97;;;;;;;8.86;100.00;99526.47;5172572;27;20060;-47
2022/11/04 05:57:19;;;;;;;10.18;5.38;;;;;;;8.93;100.00;99531.38;5172512;27;20540;-46
2022/11/04 05:59:45;;;;;;;10.85;5.28;;;;;;;8.77;100.00;99535.94;5172763;27;20519;-46
2022/11/04 06:02:11;;;;;;;10.98;5.78;;;;;;;9.04;100.00;99528.94;5172712;27;20182;-46
2022/11/04 06:04:38;;;;;;;8.98;5.15;;;;;;;9.00;100.00;99530.75;5172772;27;20050;-46
2022/11/04 06:07:04;;;;;;;7.72;4.65;;;;;;;9.07;100.00;99548.19;5172483;27;20050;-47
2022/11/04 06:09:38;;;;;;;9.10;5.13;;;;;;;9.05;100.00;99553.19;5172410;27;20046;-46
2022/11/04 06:12:06;;;;;;;5.93;4.20;;;;;;;8.80;100.00;99566.13;5172481;27;20046;-50
2022/11/04 06:14:33;;;;;;;6.93;4.53;;;;;;;8.40;100.00;99525.81;5172549;27;20054;-47
2022/11/04 06:17:00;;;;;;;9.77;5.18;;;;;;;8.63;100.00;99481.59;5172336;27;20062;-47
2022/11/04 06:19:26;;;;;;;7.22;4.40;;;;;;;8.80;100.00;99483.31;5172696;27;20549;-49
2022/11/04 06:21:52;;;;;;;9.80;5.35;;;;;;;8.59;100.00;99497.09;5172328;27;20054;-46
2022/11/04 06:24:18;;;;;;;6.15;4.60;;;;;;;8.44;100.00;99491.19;5172728;27;20050;-49
2022/11/04 06:26:45;;;;;;;9.32;5.47;;;;;;;8.84;100.00;99489.69;5172428;27;20053;-47
2022/11/04 06:29:11;;;;;;;8.52;4.68;;;;;;;9.03;100.00;99513.66;5172241;27;20061;-47
2022/11/04 06:31:38;;;;;;;9.85;5.55;;;;;;;8.77;100.00;99520.31;5171991;27;20182;-49
2022/11/04 06:34:04;;;;;;;10.75;6.30;;;;;;;8.37;100.00;99506.56;5171542;27;20137;-49
2022/11/04 06:36:31;;;;;;;18.98;7.00;;;;;;;8.40;100.00;99478.59;5172172;27;20079;-48
2022/11/04 06:38:57;;;;;;;10.70;6.70;;;;;;;8.36;100.00;99448.34;5171938;27;20043;-49
2022/11/04 06:41:23;;;;;;;23.08;7.13;;;;;;;8.35;100.00;99443.25;5172164;27;20138;-51
2022/11/04 06:43:50;;;;;;;15.95;9.20;;;;;;;8.05;100.00;99456.34;5171940;27;20054;-48
2022/11/04 06:46:27;;;;;;;21.38;11.07;;;;;;;8.01;100.00;99409.81;5171892;27;20137;-48
2022/11/04 06:48:56;;;;;;;13.55;7.88;;;;;;;8.05;100.00;99412.66;5171964;27;20042;-47
2022/11/04 06:51:22;;;;;;;9.82;6.45;;;;;;;7.87;100.00;99423.81;5171825;27;20046;-47
2022/11/04 06:53:48;;;;;;;8.85;6.20;;;;;;;8.08;100.00;99431.88;5171716;27;20049;-47
2022/11/04 06:56:15;;;;;;;9.80;6.60;;;;;;;7.78;100.00;99440.28;5171716;27;20050;-47
2022/11/04 06:58:41;;;;;;;11.20;7.10;;;;;;;7.85;100.00;99428.00;5172009;27;20045;-47
2022/11/04 07:01:07;;;;;;;10.57;7.25;;;;;;;8.11;100.00;99446.78;5171836;27;20525;-48
2022/11/04 07:03:34;;;;;;;12.35;7.13;;;;;;;7.89;100.00;99448.03;5171796;27;20047;-50
2022/11/04 07:06:06;;;;;;;14.25;7.55;;;;;;;7.83;100.00;99447.47;5171526;27;20072;-47
2022/11/04 07:08:32;;;;;;;14.98;9.30;;;;;;;7.94;100.00;99454.06;5171844;27;20449;-49
2022/11/04 07:10:58;;;;;;;15.68;9.30;;;;;;;7.93;100.00;99468.88;5171545;27;20046;-47
2022/11/04 07:13:25;;;;;;;18.25;9.85;;;;;;;7.74;100.00;99469.41;5171591;27;20129;-48
2022/11/04 07:15:51;;;;;;;15.05;9.45;;;;;;;8.09;100.00;99462.72;5171637;27;20050;-46
2022/11/04 07:18:17;;;;;;;15.75;9.15;;;;;;;7.99;100.00;99485.78;5171395;27;20063;-46
2022/11/04 07:20:43;;;;;;;13.05;8.48;;;;;;;7.71;100.00;99494.63;5171702;27;20053;-46
2022/11/04 07:23:10;;;;;;;15.40;8.93;;;;;;;8.04;100.00;99480.13;5171452;27;20432;-47
2022/11/04 07:25:37;;;;;;;15.57;8.43;;;;;;;8.04;100.00;99491.06;5171632;27;20073;-49
2022/11/04 07:28:04;;;;;;;15.40;8.90;;;;;;;7.99;100.00;99492.06;5171393;27;20054;-47
2022/11/04 07:30:31;;;;;;;18.08;10.00;;;;;;;7.89;100.00;99511.59;5171666;27;20046;-49
2022/11/04 07:33:00;;;;;;;16.85;8.30;;;;;;;7.95;100.00;99498.53;5171201;27;20058;-46
2022/11/04 07:35:26;;;;;;;15.75;9.10;;;;;;;7.69;100.00;99526.09;5171682;27;20133;-47
2022/11/04 07:37:54;;;;;;;15.88;9.38;;;;;;;7.62;100.00;99504.81;5171429;27;20087;-46
2022/11/04 07:40:21;;;;;;;14.02;8.95;;;;;;;7.76;100.00;99496.34;5171345;27;20504;-47
2022/11/04 07:42:47;;;;;;;17.17;8.55;;;;;;;7.75;100.00;99489.28;5171221;27;20051;-46
2022/11/04 07:45:13;;;;;;;16.73;9.18;;;;;;;8.01;100.00;99469.88;5174528;27;20513;-48
2022/11/04 07:47:39;;;;;;;18.08;10.07;;;;;;;7.82;100.00;99496.91;5174604;27;20402;-47
2022/11/04 07:50:06;;;;;;;22.00;9.60;;;;;;;7.81;100.00;99507.03;5174743;27;20053;-47
2022/11/04 07:52:32;;;;;;;19.80;10.05;;;;;;;8.11;100.00;99501.41;5174913;27;20105;-46
2022/11/04 07:54:58;;;;;;;14.45;9.05;;;;;;;7.90;100.00;99520.63;5174575;27;20516;-47
2022/11/04 07:57:26;;;;;;;32.38;16.50;;;;;;;7.93;100.00;99522.63;5174658;27;20050;-46
2022/11/04 07:59:52;;;;;;;19.52;9.63;;;;;;;7.88;100.00;99534.59;5174560;27;20421;-47
2022/11/04 08:02:18;;;;;;;13.05;7.38;;;;;;;8.00;100.00;99550.22;5174485;27;20528;-48
2022/11/04 08:04:44;;;;;;;16.98;7.97;;;;;;;7.87;100.00;99584.88;5174321;27;20053;-48
2022/11/04 08:07:11;;;;;;;14.23;7.88;;;;;;;8.26;100.00;99582.66;5174652;27;20046;-47
2022/11/04 08:09:37;;;;;;;16.02;7.55;;;;;;;8.38;100.00;99606.50;5174315;27;20133;-47
2022/11/04 08:12:04;;;;;;;19.63;10.10;;;;;;;8.39;100.00;99657.28;5174514;27;20081;-47
2022/11/04 08:14:31;;;;;;;19.05;9.75;;;;;;;8.53;100.00;99670.63;5174091;27;20054;-49
2022/11/04 08:16:58;;;;;;;19.25;9.10;;;;;;;8.47;100.00;99672.78;5174682;27;20050;-48
2022/11/04 08:19:25;;;;;;;15.50;8.75;;;;;;;8.31;100.00;99677.28;5174470;27;20421;-48
2022/11/04 08:21:51;;;;;;;13.13;7.95;;;;;;;8.26;100.00;99678.25;5174213;27;20533;-50
2022/11/04 08:24:17;;;;;;;15.70;7.93;;;;;;;7.91;100.00;99684.06;5174284;27;20101;-48
2022/11/04 08:26:45;;;;;;;19.00;8.63;;;;;;;8.29;100.00;99679.53;5174352;27;20134;-51
2022/11/04 08:29:11;;;;;;;13.98;6.95;;;;;;;8.24;100.00;99684.06;5174209;27;20081;-51
2022/11/04 08:31:39;;;;;;;15.27;7.70;;;;;;;8.59;100.00;99680.22;5173958;27;20057;-47
2022/11/04 08:34:07;;;;;;;12.38;7.35;;;;;;;8.27;100.00;99674.41;5174139;27;20060;-47
2022/11/04 08:36:35;;;;;;;11.93;7.32;;;;;;;8.63;100.00;99665.53;5174003;27;20544;-48
2022/11/04 08:39:03;;;;;;;14.57;8.35;;;;;;;8.55;100.00;99665.63;5174147;27;20050;-46
2022/11/04 08:41:31;;;;;;;15.50;8.85;;;;;;;8.30;100.00;99672.94;5173848;27;20054;-46
2022/11/04 08:43:59;;;;;;;16.60;9.05;;;;;;;8.10;100.00;99675.38;5174065;27;20053;-46
2022/11/04 08:46:28;;;;;;;15.27;8.82;;;;;;;8.37;100.00;99668.53;5173776;27;20046;-50
2022/11/04 08:48:55;;;;;;;20.20;9.57;;;;;;;8.42;100.00;99678.47;5173987;27;20093;-47
2022/11/04 08:51:25;;;;;;;16.65;9.70;;;;;;;8.24;100.00;99672.34;5173871;27;20046;-47
2022/11/04 08:53:51;;;;;;;19.23;10.18;;;;;;;8.40;100.00;99665.16;5173880;27;20045;-48
2022/11/04 08:56:20;;;;;;;16.48;9.95;;;;;;;8.65;100.00;99657.00;5172939;27;20050;-47
2022/11/04 08:58:47;;;;;;;22.58;14.82;;;;;;;8.34;100.00;99655.53;5173757;27;20053;-46
2022/11/04 09:01:13;;;;;;;24.13;14.32;;;;;;;8.32;100.00;99655.06;5173835;27;20054;-47
2022/11/04 09:03:40;;;;;;;20.25;12.25;;;;;;;8.42;100.00;99646.47;5173631;27;20098;-48
2022/11/04 09:06:09;;;;;;;19.83;12.32;;;;;;;8.50;100.00;99653.00;5173732;27;20050;-47
2022/11/04 09:08:38;;;;;;;18.55;11.45;;;;;;;8.48;100.00;99660.72;5173491;27;20057;-47
2022/11/04 09:11:06;;;;;;;16.98;11.15;;;;;;;8.39;100.00;99652.59;5173599;27;20504;-47
2022/11/04 09:13:32;;;;;;;15.88;10.27;;;;;;;8.48;100.00;99652.53;5173588;27;20137;-46
2022/11/04 09:15:59;;;;;;;15.68;10.70;;;;;;;8.49;100.00;99654.91;5173451;27;20050;-49
2022/11/04 09:18:25;;;;;;;15.20;9.90;;;;;;;8.70;100.00;99646.66;5173654;27;20453;-50
2022/11/04 09:20:51;;;;;;;18.73;10.07;;;;;;;8.87;100.00;99636.63;5172792;27;20042;-48
2022/11/04 09:23:18;;;;;;;15.93;9.27;;;;;;;8.61;100.00;99635.00;5173365;27;20046;-48
2022/11/04 09:25:45;;;;;;;17.15;8.10;;;;;;;8.70;100.00;99634.91;5173133;27;20526;-50
2022/11/04 09:28:11;;;;;;;10.13;6.88;;;;;;;8.81;100.00;99632.53;5173481;27;20482;-47
2022/11/04 09:30:38;;;;;;;11.20;7.22;;;;;;;8.86;100.00;99622.16;5172990;27;20050;-46
2022/11/04 09:33:04;;;;;;;11.13;7.22;;;;;;;9.37;100.00;99608.88;5173429;27;20190;-48
2022/11/04 09:35:30;;;;;;;11.00;6.93;;;;;;;9.06;100.00;99504.75;5172915;27;20047;-48
2022/11/04 09:37:59;;;;;;;10.40;7.38;;;;;;;9.20;100.00;99480.56;5172768;27;20515;-49
2022/11/04 09:40:26;;;;;;;9.13;6.43;;;;;;;9.58;100.00;99468.31;5172906;27;20065;-48
2022/11/04 09:43:06;;;;;;;8.88;5.85;;;;;;;9.66;100.00;99383.28;5172684;27;20053;-46
2022/11/04 09:45:33;;;;;;;8.43;5.78;;;;;;;9.37;100.00;99364.56;5172984;27;20065;-46
2022/11/04 09:48:04;;;;;;;11.38;5.95;;;;;;;9.62;100.00;99318.63;5172891;27;20050;-47
2022/11/04 09:50:44;;;;;;;15.35;6.05;;;;;;;9.29;100.00;99347.13;5173096;27;20042;-49
2022/11/04 09:53:17;;;;;;;8.00;6.03;;;;;;;9.44;100.00;99329.16;5172425;27;20088;-48
2022/11/04 09:55:52;;;;;;;7.70;5.55;;;;;;;9.40;100.00;99326.34;5173163;27;20134;-48
2022/11/04 09:58:18;;;;;;;8.35;5.97;;;;;;;9.52;100.00;99287.13;5172675;27;20070;-47
2022/11/04 10:00:50;;;;;;;8.48;4.43;;;;;;;8.87;100.00;99308.53;5172699;27;20072;-48
2022/11/04 10:03:41;;;;;;;6.07;4.53;;;;;;;8.63;100.00;99380.47;5172309;27;20175;-48
2022/11/04 10:06:24;;;;;;;9.00;5.10;;;;;;;9.02;100.00;99421.81;5172438;27;20046;-48
2022/11/04 10:09:23;;;;;;;6.10;4.50;;;;;;;9.10;100.00;99412.69;5171729;27;20050;-48
2022/11/04 10:12:15;;;;;;;5.57;4.57;;;;;;;9.35;100.00;99410.63;5163402;27;20062;-48
2022/11/04 10:14:56;;;;;;;5.70;4.68;;;;;;;9.14;100.00;99408.91;5172264;27;20050;-48
2022/11/04 10:17:39;;;;;;;5.72;4.57;;;;;;;9.15;100.00;99330.38;5172606;27;20046;-48
2022/11/04 10:20:25;;;;;;;7.28;4.45;;;;;;;9.43;100.00;99308.44;5172224;27;20071;-50
2022/11/04 10:22:57;;;;;;;8.43;4.70;;;;;;;9.30;100.00;99329.59;5172497;27;20053;-49
2022/11/04 10:25:28;;;;;;;4.63;3.97;;;;;;;9.63;100.00;99260.03;5171841;27;20053;-46
2022/11/04 10:27:55;;;;;;;6.50;4.47;;;;;;;8.94;100.00;99226.69;5172105;27;20046;-49
2022/11/04 10:30:23;;;;;;;6.05;3.85;;;;;;;8.45;100.00;99344.47;5172124;27;20565;-50
2022/11/04 10:33:01;;;;;;;7.55;3.63;;;;;;;9.26;100.00;99385.34;5172003;27;20105;-49
2022/11/04 10:35:34;;;;;;;3.90;3.05;;;;;;;8.97;100.00;99296.31;5172103;27;20086;-47
2022/11/04 10:38:20;;;;;;;3.80;2.90;;;;;;;8.56;100.00;99255.38;5172132;27;20046;-47
2022/11/04 10:40:49;;;;;;;3.92;3.53;;;;;;;9.13;100.00;99280.69;5169947;27;20382;-49
2022/11/04 10:43:23;;;;;;;6.93;3.33;;;;;;;9.15;100.00;99216.28;5171830;27;20050;-50
2022/11/04 10:46:02;;;;;;;5.70;3.72;;;;;;;9.46;100.00;99220.13;5172012;27;20046;-48
2022/11/04 10:48:37;;;;;;;3.38;3.03;;;;;;;9.41;100.00;99195.78;5172135;27;20042;-51
2022/11/04 10:51:04;;;;;;;;;;;;;;;9.56;100.00;99159.38;5172268;27;20082;-49
2022/11/04 10:53:32;;;;;;;6.07;2.88;;;;;;;9.72;100.00;99065.44;5172260;27;19926;-49
2022/11/04 10:56:03;;;;;;;3.58;2.75;;;;;;;9.49;100.00;99033.34;5171642;27;20046;-49
2022/11/04 10:58:34;;;;;;;3.85;2.65;;;;;;;9.35;100.00;99011.94;5171868;27;20052;-48
2022/11/04 11:01:25;;;;;;;2.97;2.67;;;;;;;9.37;100.00;99216.81;5171551;27;20042;-48
2022/11/04 11:03:51;;;;;;;4.20;2.83;;;;;;;9.35;100.00;99228.09;5171787;27;20061;-48
2022/11/04 11:06:26;;;;;;;5.43;3.28;;;;;;;8.77;100.00;99208.72;5171820;27;20053;-49
2022/11/04 11:08:54;;;;;;;4.80;2.83;;;;;;;8.87;100.00;99303.88;5171482;27;20088;-50
2022/11/04 11:11:44;;;;;;;4.13;2.97;;;;;;;9.05;100.00;99285.19;5171660;27;20050;-50
2022/11/04 11:14:19;;;;;;;4.32;3.30;;;;;;;8.99;100.00;99326.81;5171279;27;20081;-48
2022/11/04 11:16:47;;;;;;;2.90;2.33;;;;;;;8.92;100.00;99298.13;5171549;27;20060;-49
2022/11/04 11:19:16;;;;;;;7.72;2.50;;;;;;;9.08;100.00;99201.66;5173354;27;20581;-48
2022/11/04 11:21:46;;;;;;;4.18;2.40;;;;;;;8.99;100.00;99220.97;5175246;27;20425;-50
2022/11/04 11:24:16;;;;;;;2.63;2.20;;;;;;;9.06;100.00;99185.56;5175005;27;20110;-50
2022/11/04 11:26:47;;;;;;;3.10;2.03;;;;;;;9.46;100.00;99153.66;5175249;27;20126;-48
2022/11/04 11:29:21;;;;;;;2.40;1.80;;;;;;;8.99;100.00;99099.84;5175274;27;20522;-48
2022/11/04 11:31:50;;;;;;;3.00;1.77;;;;;;;9.33;100.00;99000.59;5175064;27;20056;-47
2022/11/04 11:34:25;;;;;;;2.55;1.98;;;;;;;9.07;100.00;98929.34;5174645;27;20553;-48
2022/11/04 11:36:53;;;;;;;1.95;1.73;;;;;;;8.46;100.00;99016.28;5174616;27;20133;-48
2022/11/04 11:39:23;;;;;;;3.22;1.80;;;;;;;8.95;100.00;99119.72;5175051;27;20063;-47
2022/11/04 11:41:56;;;;;;;5.60;2.08;;;;;;;9.14;100.00;99145.53;5174848;27;20046;-47
2022/11/04 11:44:30;;;;;;;3.60;1.83;;;;;;;9.19;100.00;99030.38;5175001;27;20068;-47
2022/11/04 11:47:00;;;;;;;2.72;2.13;;;;;;;9.30;100.00;98995.84;5175044;27;20061;-47
2022/11/04 11:49:29;;;;;;;3.88;2.58;;;;;;;8.89;100.00;98978.16;5174663;27;20098;-47
2022/11/04 11:52:21;;;;;;;3.83;2.60;;;;;;;9.21;100.00;98995.25;5174952;27;20050;-47
2022/11/04 11:54:52;;;;;;;8.18;5.65;;;;;;;9.25;100.00;98935.16;5174394;27;20047;-50
2022/11/04 11:57:32;;;;;;;5.10;3.50;;;;;;;9.25;100.00;98910.53;5174606;27;20050;-50
2022/11/04 12:00:05;;;;;;;4.43;3.75;;;;;;;9.26;100.00;98962.13;5174277;27;20058;-50
2022/11/04 12:02:40;;;;;;;6.43;3.93;;;;;;;8.93;100.00;99052.88;5174634;27;20057;-51
2022/11/04 12:05:09;;;;;;;4.18;3.17;;;;;;;9.41;100.00;99080.88;5174646;27;20493;-49
2022/11/04 12:07:43;;;;;;;7.07;3.05;;;;;;;9.04;100.00;99105.84;5174394;27;20050;-47
2022/11/04 12:10:23;;;;;;;5.97;3.25;;;;;;;9.30;100.00;99112.69;5174708;27;20515;-48